sensor_id;sensor_type;location;lat;lon;timestamp;P1;durP1;ratioP1;P2;durP2;ratioP2
4422;SDS011;2224;49.814;8.650;2023-05-19T00:01:33;3.60;;;3.20;;
4422;SDS011;2224;49.814;8.650;2023-05-19T00:04:01;3.20;;;2.90;;
4422;SDS011;2224;49.814;8.650;2023-05-19T00:06:30;6.77;;;3.13;;
4422;SDS011;2224;49.814;8.650;2023-05-19T00:11:23;3.60;;;3.30;;
4422;SDS011;2224;49.814;8.650;2023-05-19T00:13:50;6.27;;;3.10;;
4422;SDS011;2224;49.814;8.650;2023-05-19T00:16:17;3.80;;;3.03;;
4422;SDS011;2224;49.814;8.650;2023-05-19T00:18:43;2.93;;;2.50;;
4422;SDS011;2224;49.814;8.650;2023-05-19T00:21:08;5.43;;;2.70;;
4422;SDS011;2224;49.814;8.650;2023-05-19T00:23:33;4.40;;;3.47;;
4422;SDS011;2224;49.814;8.650;2023-05-19T00:25:59;3.40;;;3.17;;
4422;SDS011;2224;49.814;8.650;2023-05-19T00:28:24;4.73;;;3.33;;
4422;SDS011;2224;49.814;8.650;2023-05-19T00:30:50;7.23;;;3.60;;
4422;SDS011;2224;49.814;8.650;2023-05-19T00:33:15;4.90;;;3.63;;
4422;SDS011;2224;49.814;8.650;2023-05-19T00:35:41;4.23;;;3.70;;
4422;SDS011;2224;49.814;8.650;2023-05-19T00:38:06;3.43;;;2.73;;
4422;SDS011;2224;49.814;8.650;2023-05-19T00:40:32;4.83;;;3.30;;
4422;SDS011;2224;49.814;8.650;2023-05-19T00:43:00;7.60;;;2.97;;
4422;SDS011;2224;49.814;8.650;2023-05-19T00:45:25;5.20;;;3.07;;
4422;SDS011;2224;49.814;8.650;2023-05-19T00:47:50;4.57;;;4.17;;
4422;SDS011;2224;49.814;8.650;2023-05-19T00:50:16;3.60;;;3.30;;
4422;SDS011;2224;49.814;8.650;2023-05-19T00:52:41;3.53;;;3.00;;
4422;SDS011;2224;49.814;8.650;2023-05-19T00:55:06;5.27;;;3.47;;
4422;SDS011;2224;49.814;8.650;2023-05-19T00:57:32;6.00;;;3.67;;
4422;SDS011;2224;49.814;8.650;2023-05-19T00:59:58;5.13;;;3.40;;
4422;SDS011;2224;49.814;8.650;2023-05-19T01:02:23;6.87;;;3.70;;
4422;SDS011;2224;49.814;8.650;2023-05-19T01:04:49;4.07;;;3.20;;
4422;SDS011;2224;49.814;8.650;2023-05-19T01:07:15;7.30;;;4.10;;
4422;SDS011;2224;49.814;8.650;2023-05-19T01:09:40;4.87;;;3.70;;
4422;SDS011;2224;49.814;8.650;2023-05-19T01:12:06;3.87;;;3.57;;
4422;SDS011;2224;49.814;8.650;2023-05-19T01:14:31;4.70;;;3.43;;
4422;SDS011;2224;49.814;8.650;2023-05-19T01:17:00;6.00;;;3.63;;
4422;SDS011;2224;49.814;8.650;2023-05-19T01:27:23;5.80;;;3.27;;
4422;SDS011;2224;49.814;8.650;2023-05-19T01:33:00;5.13;;;3.63;;
4422;SDS011;2224;49.814;8.650;2023-05-19T01:35:27;5.93;;;3.70;;
4422;SDS011;2224;49.814;8.650;2023-05-19T01:37:53;3.53;;;3.10;;
4422;SDS011;2224;49.814;8.650;2023-05-19T01:40:20;6.03;;;3.40;;
4422;SDS011;2224;49.814;8.650;2023-05-19T01:42:47;9.33;;;3.90;;
4422;SDS011;2224;49.814;8.650;2023-05-19T01:45:13;3.80;;;3.40;;
4422;SDS011;2224;49.814;8.650;2023-05-19T01:47:40;3.90;;;3.30;;
4422;SDS011;2224;49.814;8.650;2023-05-19T01:50:06;5.43;;;3.70;;
4422;SDS011;2224;49.814;8.650;2023-05-19T01:52:32;8.83;;;3.87;;
4422;SDS011;2224;49.814;8.650;2023-05-19T01:54:58;6.50;;;3.50;;
4422;SDS011;2224;49.814;8.650;2023-05-19T02:03:05;8.13;;;3.30;;
4422;SDS011;2224;49.814;8.650;2023-05-19T02:05:44;5.80;;;3.83;;
4422;SDS011;2224;49.814;8.650;2023-05-19T02:08:23;6.03;;;3.70;;
4422;SDS011;2224;49.814;8.650;2023-05-19T02:11:04;5.10;;;4.23;;
4422;SDS011;2224;49.814;8.650;2023-05-19T02:13:39;4.03;;;3.73;;
4422;SDS011;2224;49.814;8.650;2023-05-19T02:16:07;8.03;;;3.67;;
4422;SDS011;2224;49.814;8.650;2023-05-19T02:18:34;5.83;;;3.50;;
4422;SDS011;2224;49.814;8.650;2023-05-19T02:21:00;3.53;;;3.23;;
4422;SDS011;2224;49.814;8.650;2023-05-19T02:23:26;4.70;;;3.40;;
4422;SDS011;2224;49.814;8.650;2023-05-19T02:25:51;5.60;;;3.70;;
4422;SDS011;2224;49.814;8.650;2023-05-19T02:28:17;5.03;;;3.70;;
4422;SDS011;2224;49.814;8.650;2023-05-19T02:30:42;4.53;;;3.63;;
4422;SDS011;2224;49.814;8.650;2023-05-19T02:33:08;4.37;;;3.43;;
4422;SDS011;2224;49.814;8.650;2023-05-19T02:35:35;4.03;;;3.47;;
4422;SDS011;2224;49.814;8.650;2023-05-19T02:38:00;6.80;;;3.37;;
4422;SDS011;2224;49.814;8.650;2023-05-19T02:40:25;4.20;;;3.80;;
4422;SDS011;2224;49.814;8.650;2023-05-19T02:42:51;8.73;;;3.80;;
4422;SDS011;2224;49.814;8.650;2023-05-19T02:45:16;6.23;;;3.40;;
4422;SDS011;2224;49.814;8.650;2023-05-19T02:47:41;10.17;;;5.17;;
4422;SDS011;2224;49.814;8.650;2023-05-19T02:50:07;4.30;;;3.70;;
4422;SDS011;2224;49.814;8.650;2023-05-19T02:52:32;9.83;;;3.67;;
4422;SDS011;2224;49.814;8.650;2023-05-19T02:54:58;3.53;;;3.23;;
4422;SDS011;2224;49.814;8.650;2023-05-19T02:57:23;7.27;;;3.90;;
4422;SDS011;2224;49.814;8.650;2023-05-19T02:59:50;9.30;;;3.60;;
4422;SDS011;2224;49.814;8.650;2023-05-19T03:02:15;4.03;;;3.00;;
4422;SDS011;2224;49.814;8.650;2023-05-19T03:04:41;4.17;;;3.63;;
4422;SDS011;2224;49.814;8.650;2023-05-19T03:07:07;7.40;;;4.03;;
4422;SDS011;2224;49.814;8.650;2023-05-19T03:09:34;3.90;;;3.50;;
4422;SDS011;2224;49.814;8.650;2023-05-19T03:12:03;4.40;;;4.00;;
4422;SDS011;2224;49.814;8.650;2023-05-19T03:14:30;5.17;;;3.60;;
4422;SDS011;2224;49.814;8.650;2023-05-19T03:16:56;6.30;;;5.73;;
4422;SDS011;2224;49.814;8.650;2023-05-19T03:19:21;7.27;;;4.00;;
4422;SDS011;2224;49.814;8.650;2023-05-19T03:21:47;5.60;;;3.43;;
4422;SDS011;2224;49.814;8.650;2023-05-19T03:24:13;7.37;;;3.83;;
4422;SDS011;2224;49.814;8.650;2023-05-19T03:26:38;7.07;;;4.00;;
4422;SDS011;2224;49.814;8.650;2023-05-19T03:29:04;6.60;;;3.90;;
4422;SDS011;2224;49.814;8.650;2023-05-19T03:31:29;6.00;;;3.63;;
4422;SDS011;2224;49.814;8.650;2023-05-19T03:33:55;3.93;;;3.30;;
4422;SDS011;2224;49.814;8.650;2023-05-19T03:36:22;6.50;;;3.43;;
4422;SDS011;2224;49.814;8.650;2023-05-19T03:38:47;4.30;;;3.83;;
4422;SDS011;2224;49.814;8.650;2023-05-19T03:41:13;5.20;;;3.43;;
4422;SDS011;2224;49.814;8.650;2023-05-19T03:43:38;6.07;;;4.07;;
4422;SDS011;2224;49.814;8.650;2023-05-19T03:46:04;5.43;;;3.90;;
4422;SDS011;2224;49.814;8.650;2023-05-19T03:48:29;4.07;;;3.67;;
4422;SDS011;2224;49.814;8.650;2023-05-19T03:50:54;3.93;;;3.20;;
4422;SDS011;2224;49.814;8.650;2023-05-19T03:53:20;7.27;;;3.73;;
4422;SDS011;2224;49.814;8.650;2023-05-19T03:55:45;5.57;;;3.93;;
4422;SDS011;2224;49.814;8.650;2023-05-19T03:58:12;6.63;;;3.80;;
4422;SDS011;2224;49.814;8.650;2023-05-19T04:00:38;4.37;;;3.57;;
4422;SDS011;2224;49.814;8.650;2023-05-19T04:03:04;5.40;;;3.80;;
4422;SDS011;2224;49.814;8.650;2023-05-19T04:05:29;4.87;;;3.90;;
4422;SDS011;2224;49.814;8.650;2023-05-19T04:07:55;4.83;;;4.33;;
4422;SDS011;2224;49.814;8.650;2023-05-19T04:10:20;4.57;;;4.03;;
4422;SDS011;2224;49.814;8.650;2023-05-19T04:12:46;4.37;;;3.60;;
4422;SDS011;2224;49.814;8.650;2023-05-19T04:15:11;7.83;;;4.03;;
4422;SDS011;2224;49.814;8.650;2023-05-19T04:17:37;5.13;;;3.93;;
4422;SDS011;2224;49.814;8.650;2023-05-19T04:20:03;4.67;;;3.40;;
4422;SDS011;2224;49.814;8.650;2023-05-19T04:22:32;4.10;;;3.70;;
4422;SDS011;2224;49.814;8.650;2023-05-19T04:24:57;6.23;;;3.57;;
4422;SDS011;2224;49.814;8.650;2023-05-19T04:27:23;4.30;;;3.90;;
4422;SDS011;2224;49.814;8.650;2023-05-19T04:29:48;6.40;;;3.70;;
4422;SDS011;2224;49.814;8.650;2023-05-19T04:32:14;4.30;;;3.30;;
4422;SDS011;2224;49.814;8.650;2023-05-19T04:34:41;5.43;;;3.90;;
4422;SDS011;2224;49.814;8.650;2023-05-19T04:37:09;4.53;;;3.80;;
4422;SDS011;2224;49.814;8.650;2023-05-19T04:39:35;5.40;;;3.50;;
4422;SDS011;2224;49.814;8.650;2023-05-19T04:42:06;7.47;;;3.87;;
4422;SDS011;2224;49.814;8.650;2023-05-19T04:44:32;5.63;;;4.00;;
4422;SDS011;2224;49.814;8.650;2023-05-19T04:46:58;5.90;;;3.70;;
4422;SDS011;2224;49.814;8.650;2023-05-19T04:49:24;8.80;;;4.03;;
4422;SDS011;2224;49.814;8.650;2023-05-19T04:51:49;3.63;;;3.33;;
4422;SDS011;2224;49.814;8.650;2023-05-19T04:54:16;6.73;;;3.30;;
4422;SDS011;2224;49.814;8.650;2023-05-19T04:56:41;4.60;;;3.70;;
4422;SDS011;2224;49.814;8.650;2023-05-19T04:59:07;5.80;;;3.50;;
4422;SDS011;2224;49.814;8.650;2023-05-19T05:01:33;4.23;;;3.80;;
4422;SDS011;2224;49.814;8.650;2023-05-19T05:04:04;4.30;;;3.90;;
4422;SDS011;2224;49.814;8.650;2023-05-19T05:06:29;5.07;;;4.40;;
4422;SDS011;2224;49.814;8.650;2023-05-19T05:08:55;6.40;;;3.53;;
4422;SDS011;2224;49.814;8.650;2023-05-19T05:11:21;4.83;;;3.83;;
4422;SDS011;2224;49.814;8.650;2023-05-19T05:13:46;5.90;;;4.37;;
4422;SDS011;2224;49.814;8.650;2023-05-19T05:16:12;5.20;;;3.80;;
4422;SDS011;2224;49.814;8.650;2023-05-19T05:18:38;7.40;;;3.40;;
4422;SDS011;2224;49.814;8.650;2023-05-19T05:21:03;4.00;;;3.60;;
4422;SDS011;2224;49.814;8.650;2023-05-19T05:23:30;9.57;;;3.93;;
4422;SDS011;2224;49.814;8.650;2023-05-19T05:25:55;8.90;;;3.53;;
4422;SDS011;2224;49.814;8.650;2023-05-19T05:28:21;10.93;;;3.63;;
4422;SDS011;2224;49.814;8.650;2023-05-19T05:30:46;4.47;;;3.60;;
4422;SDS011;2224;49.814;8.650;2023-05-19T05:33:12;4.10;;;3.50;;
4422;SDS011;2224;49.814;8.650;2023-05-19T05:35:38;5.37;;;3.17;;
4422;SDS011;2224;49.814;8.650;2023-05-19T05:38:03;4.90;;;3.30;;
4422;SDS011;2224;49.814;8.650;2023-05-19T05:40:29;6.40;;;3.47;;
4422;SDS011;2224;49.814;8.650;2023-05-19T05:42:54;5.70;;;3.40;;
4422;SDS011;2224;49.814;8.650;2023-05-19T05:45:23;4.40;;;3.90;;
4422;SDS011;2224;49.814;8.650;2023-05-19T05:47:49;6.40;;;3.50;;
4422;SDS011;2224;49.814;8.650;2023-05-19T05:50:15;7.70;;;3.43;;
4422;SDS011;2224;49.814;8.650;2023-05-19T05:52:42;7.70;;;3.90;;
4422;SDS011;2224;49.814;8.650;2023-05-19T05:55:10;7.40;;;3.70;;
4422;SDS011;2224;49.814;8.650;2023-05-19T05:57:36;4.20;;;3.20;;
4422;SDS011;2224;49.814;8.650;2023-05-19T06:00:02;8.03;;;3.57;;
4422;SDS011;2224;49.814;8.650;2023-05-19T06:02:31;5.20;;;3.33;;
4422;SDS011;2224;49.814;8.650;2023-05-19T06:04:56;5.73;;;4.00;;
4422;SDS011;2224;49.814;8.650;2023-05-19T06:07:22;4.43;;;3.33;;
4422;SDS011;2224;49.814;8.650;2023-05-19T06:09:48;3.30;;;3.00;;
4422;SDS011;2224;49.814;8.650;2023-05-19T06:12:13;6.10;;;3.00;;
4422;SDS011;2224;49.814;8.650;2023-05-19T06:14:39;7.03;;;3.60;;
4422;SDS011;2224;49.814;8.650;2023-05-19T06:17:04;6.87;;;3.03;;
4422;SDS011;2224;49.814;8.650;2023-05-19T06:19:31;3.80;;;3.00;;
4422;SDS011;2224;49.814;8.650;2023-05-19T06:21:56;7.93;;;3.60;;
4422;SDS011;2224;49.814;8.650;2023-05-19T06:24:21;4.70;;;3.20;;
4422;SDS011;2224;49.814;8.650;2023-05-19T06:26:47;8.80;;;4.10;;
4422;SDS011;2224;49.814;8.650;2023-05-19T06:29:12;8.07;;;3.50;;
4422;SDS011;2224;49.814;8.650;2023-05-19T06:31:37;11.00;;;3.20;;
4422;SDS011;2224;49.814;8.650;2023-05-19T06:34:03;5.70;;;3.37;;
4422;SDS011;2224;49.814;8.650;2023-05-19T06:36:28;21.37;;;5.60;;
4422;SDS011;2224;49.814;8.650;2023-05-19T06:38:53;16.20;;;5.20;;
4422;SDS011;2224;49.814;8.650;2023-05-19T06:41:19;6.87;;;3.43;;
4422;SDS011;2224;49.814;8.650;2023-05-19T06:43:45;4.50;;;3.40;;
4422;SDS011;2224;49.814;8.650;2023-05-19T06:46:10;6.27;;;3.03;;
4422;SDS011;2224;49.814;8.650;2023-05-19T06:48:36;5.23;;;3.03;;
4422;SDS011;2224;49.814;8.650;2023-05-19T06:51:02;5.70;;;3.20;;
4422;SDS011;2224;49.814;8.650;2023-05-19T06:53:27;7.90;;;3.60;;
4422;SDS011;2224;49.814;8.650;2023-05-19T06:55:53;5.33;;;3.50;;
4422;SDS011;2224;49.814;8.650;2023-05-19T06:58:18;5.37;;;3.30;;
4422;SDS011;2224;49.814;8.650;2023-05-19T07:00:43;8.63;;;3.53;;
4422;SDS011;2224;49.814;8.650;2023-05-19T07:03:09;7.20;;;3.10;;
4422;SDS011;2224;49.814;8.650;2023-05-19T07:05:34;3.47;;;3.07;;
4422;SDS011;2224;49.814;8.650;2023-05-19T07:08:00;5.40;;;3.20;;
4422;SDS011;2224;49.814;8.650;2023-05-19T07:10:26;5.70;;;3.00;;
4422;SDS011;2224;49.814;8.650;2023-05-19T07:12:51;4.83;;;3.00;;
4422;SDS011;2224;49.814;8.650;2023-05-19T07:15:17;4.97;;;3.10;;
4422;SDS011;2224;49.814;8.650;2023-05-19T07:17:42;5.27;;;3.33;;
4422;SDS011;2224;49.814;8.650;2023-05-19T07:20:07;4.60;;;3.00;;
4422;SDS011;2224;49.814;8.650;2023-05-19T07:22:36;5.43;;;3.33;;
4422;SDS011;2224;49.814;8.650;2023-05-19T07:25:03;4.50;;;2.97;;
4422;SDS011;2224;49.814;8.650;2023-05-19T07:27:29;5.20;;;3.00;;
4422;SDS011;2224;49.814;8.650;2023-05-19T07:29:54;4.80;;;2.80;;
4422;SDS011;2224;49.814;8.650;2023-05-19T07:32:20;6.50;;;3.37;;
4422;SDS011;2224;49.814;8.650;2023-05-19T07:34:45;5.10;;;3.10;;
4422;SDS011;2224;49.814;8.650;2023-05-19T07:37:10;4.03;;;2.83;;
4422;SDS011;2224;49.814;8.650;2023-05-19T07:39:36;5.87;;;2.77;;
4422;SDS011;2224;49.814;8.650;2023-05-19T07:42:01;3.60;;;2.63;;
4422;SDS011;2224;49.814;8.650;2023-05-19T07:44:27;4.60;;;2.97;;
4422;SDS011;2224;49.814;8.650;2023-05-19T07:46:55;4.40;;;3.03;;
4422;SDS011;2224;49.814;8.650;2023-05-19T07:49:20;5.50;;;3.00;;
4422;SDS011;2224;49.814;8.650;2023-05-19T07:51:45;6.80;;;3.07;;
4422;SDS011;2224;49.814;8.650;2023-05-19T07:54:11;4.80;;;3.27;;
4422;SDS011;2224;49.814;8.650;2023-05-19T07:56:36;4.43;;;3.00;;
4422;SDS011;2224;49.814;8.650;2023-05-19T07:59:02;6.63;;;3.00;;
4422;SDS011;2224;49.814;8.650;2023-05-19T08:01:28;5.63;;;2.40;;
4422;SDS011;2224;49.814;8.650;2023-05-19T08:03:53;3.90;;;2.90;;
4422;SDS011;2224;49.814;8.650;2023-05-19T08:06:19;5.80;;;2.97;;
4422;SDS011;2224;49.814;8.650;2023-05-19T08:08:45;5.30;;;3.57;;
4422;SDS011;2224;49.814;8.650;2023-05-19T08:11:11;6.03;;;3.10;;
4422;SDS011;2224;49.814;8.650;2023-05-19T08:13:36;5.60;;;2.83;;
4422;SDS011;2224;49.814;8.650;2023-05-19T08:16:01;5.67;;;3.30;;
4422;SDS011;2224;49.814;8.650;2023-05-19T08:18:27;5.93;;;3.17;;
4422;SDS011;2224;49.814;8.650;2023-05-19T08:20:53;4.57;;;2.60;;
4422;SDS011;2224;49.814;8.650;2023-05-19T08:23:18;3.17;;;2.40;;
4422;SDS011;2224;49.814;8.650;2023-05-19T08:25:44;4.63;;;2.93;;
4422;SDS011;2224;49.814;8.650;2023-05-19T08:28:09;3.27;;;2.47;;
4422;SDS011;2224;49.814;8.650;2023-05-19T08:30:35;4.53;;;2.50;;
4422;SDS011;2224;49.814;8.650;2023-05-19T08:33:00;7.37;;;2.80;;
4422;SDS011;2224;49.814;8.650;2023-05-19T08:35:26;4.23;;;2.70;;
4422;SDS011;2224;49.814;8.650;2023-05-19T08:37:51;5.13;;;3.07;;
4422;SDS011;2224;49.814;8.650;2023-05-19T08:40:17;3.50;;;2.87;;
4422;SDS011;2224;49.814;8.650;2023-05-19T08:42:46;3.10;;;2.50;;
4422;SDS011;2224;49.814;8.650;2023-05-19T08:45:11;4.07;;;2.83;;
4422;SDS011;2224;49.814;8.650;2023-05-19T08:47:37;4.70;;;3.27;;
4422;SDS011;2224;49.814;8.650;2023-05-19T08:50:06;7.37;;;3.43;;
4422;SDS011;2224;49.814;8.650;2023-05-19T08:55:24;6.20;;;3.10;;
4422;SDS011;2224;49.814;8.650;2023-05-19T08:58:09;3.80;;;2.70;;
4422;SDS011;2224;49.814;8.650;2023-05-19T09:00:35;4.00;;;2.23;;
4422;SDS011;2224;49.814;8.650;2023-05-19T09:03:01;5.73;;;2.60;;
4422;SDS011;2224;49.814;8.650;2023-05-19T09:05:26;6.93;;;2.90;;
4422;SDS011;2224;49.814;8.650;2023-05-19T09:07:52;3.70;;;2.50;;
4422;SDS011;2224;49.814;8.650;2023-05-19T09:10:17;5.53;;;2.43;;
4422;SDS011;2224;49.814;8.650;2023-05-19T09:12:43;4.70;;;3.30;;
4422;SDS011;2224;49.814;8.650;2023-05-19T09:15:09;2.97;;;2.37;;
4422;SDS011;2224;49.814;8.650;2023-05-19T09:17:35;4.63;;;3.30;;
4422;SDS011;2224;49.814;8.650;2023-05-19T09:20:01;4.30;;;2.70;;
4422;SDS011;2224;49.814;8.650;2023-05-19T09:22:39;4.27;;;2.67;;
4422;SDS011;2224;49.814;8.650;2023-05-19T09:25:05;6.83;;;3.60;;
4422;SDS011;2224;49.814;8.650;2023-05-19T09:27:31;5.43;;;2.60;;
4422;SDS011;2224;49.814;8.650;2023-05-19T09:30:05;3.27;;;2.77;;
4422;SDS011;2224;49.814;8.650;2023-05-19T09:32:32;2.47;;;2.00;;
4422;SDS011;2224;49.814;8.650;2023-05-19T09:34:59;4.37;;;2.60;;
4422;SDS011;2224;49.814;8.650;2023-05-19T09:37:27;3.97;;;2.40;;
4422;SDS011;2224;49.814;8.650;2023-05-19T09:39:52;3.50;;;2.70;;
4422;SDS011;2224;49.814;8.650;2023-05-19T09:42:27;2.47;;;2.27;;
4422;SDS011;2224;49.814;8.650;2023-05-19T09:45:00;5.00;;;3.00;;
4422;SDS011;2224;49.814;8.650;2023-05-19T09:47:35;6.73;;;2.47;;
4422;SDS011;2224;49.814;8.650;2023-05-19T09:50:07;4.10;;;2.53;;
4422;SDS011;2224;49.814;8.650;2023-05-19T09:52:37;4.40;;;2.63;;
4422;SDS011;2224;49.814;8.650;2023-05-19T09:55:03;2.77;;;1.80;;
4422;SDS011;2224;49.814;8.650;2023-05-19T09:57:33;6.70;;;2.63;;
4422;SDS011;2224;49.814;8.650;2023-05-19T10:00:04;6.67;;;2.60;;
4422;SDS011;2224;49.814;8.650;2023-05-19T10:02:41;2.77;;;2.27;;
4422;SDS011;2224;49.814;8.650;2023-05-19T10:05:15;4.13;;;2.60;;
4422;SDS011;2224;49.814;8.650;2023-05-19T10:07:42;6.00;;;2.40;;
4422;SDS011;2224;49.814;8.650;2023-05-19T10:10:08;4.17;;;2.50;;
4422;SDS011;2224;49.814;8.650;2023-05-19T10:12:37;5.30;;;2.80;;
4422;SDS011;2224;49.814;8.650;2023-05-19T10:15:03;5.80;;;2.50;;
4422;SDS011;2224;49.814;8.650;2023-05-19T10:17:30;8.60;;;2.90;;
4422;SDS011;2224;49.814;8.650;2023-05-19T10:19:56;3.93;;;2.30;;
4422;SDS011;2224;49.814;8.650;2023-05-19T10:22:21;9.23;;;2.70;;
4422;SDS011;2224;49.814;8.650;2023-05-19T10:24:47;4.30;;;2.67;;
4422;SDS011;2224;49.814;8.650;2023-05-19T10:27:12;5.30;;;3.00;;
4422;SDS011;2224;49.814;8.650;2023-05-19T10:29:39;3.40;;;2.53;;
4422;SDS011;2224;49.814;8.650;2023-05-19T10:32:09;2.90;;;2.43;;
4422;SDS011;2224;49.814;8.650;2023-05-19T10:43:29;7.47;;;2.70;;
4422;SDS011;2224;49.814;8.650;2023-05-19T10:46:00;4.93;;;2.50;;
4422;SDS011;2224;49.814;8.650;2023-05-19T10:48:26;6.00;;;2.73;;
4422;SDS011;2224;49.814;8.650;2023-05-19T10:50:57;3.20;;;2.30;;
4422;SDS011;2224;49.814;8.650;2023-05-19T10:53:28;7.00;;;2.03;;
4422;SDS011;2224;49.814;8.650;2023-05-19T10:55:55;5.10;;;2.43;;
4422;SDS011;2224;49.814;8.650;2023-05-19T11:01:14;5.10;;;2.50;;
4422;SDS011;2224;49.814;8.650;2023-05-19T11:06:20;3.70;;;2.40;;
4422;SDS011;2224;49.814;8.650;2023-05-19T11:14:12;4.23;;;2.87;;
4422;SDS011;2224;49.814;8.650;2023-05-19T11:16:40;3.67;;;2.27;;
4422;SDS011;2224;49.814;8.650;2023-05-19T11:19:15;3.73;;;2.40;;
4422;SDS011;2224;49.814;8.650;2023-05-19T11:21:49;4.43;;;2.70;;
4422;SDS011;2224;49.814;8.650;2023-05-19T11:29:49;5.73;;;2.13;;
4422;SDS011;2224;49.814;8.650;2023-05-19T11:32:21;5.47;;;3.20;;
4422;SDS011;2224;49.814;8.650;2023-05-19T11:34:49;3.43;;;2.23;;
4422;SDS011;2224;49.814;8.650;2023-05-19T11:37:15;3.30;;;2.30;;
4422;SDS011;2224;49.814;8.650;2023-05-19T11:39:40;10.10;;;2.83;;
4422;SDS011;2224;49.814;8.650;2023-05-19T11:42:09;3.67;;;2.47;;
4422;SDS011;2224;49.814;8.650;2023-05-19T11:44:35;7.53;;;2.80;;
4422;SDS011;2224;49.814;8.650;2023-05-19T11:47:02;9.23;;;2.90;;
4422;SDS011;2224;49.814;8.650;2023-05-19T11:49:28;4.40;;;2.33;;
4422;SDS011;2224;49.814;8.650;2023-05-19T11:51:53;6.37;;;2.30;;
4422;SDS011;2224;49.814;8.650;2023-05-19T11:54:19;2.67;;;2.20;;
4422;SDS011;2224;49.814;8.650;2023-05-19T11:56:44;3.87;;;2.50;;
4422;SDS011;2224;49.814;8.650;2023-05-19T11:59:10;3.00;;;2.30;;
4422;SDS011;2224;49.814;8.650;2023-05-19T12:01:35;3.30;;;2.17;;
4422;SDS011;2224;49.814;8.650;2023-05-19T12:04:08;4.10;;;2.40;;
4422;SDS011;2224;49.814;8.650;2023-05-19T12:06:34;2.90;;;2.00;;
4422;SDS011;2224;49.814;8.650;2023-05-19T12:09:00;4.30;;;2.10;;
4422;SDS011;2224;49.814;8.650;2023-05-19T12:11:27;4.00;;;2.17;;
4422;SDS011;2224;49.814;8.650;2023-05-19T12:13:54;2.93;;;1.77;;
4422;SDS011;2224;49.814;8.650;2023-05-19T12:16:22;2.50;;;2.30;;
4422;SDS011;2224;49.814;8.650;2023-05-19T12:18:47;2.53;;;2.17;;
4422;SDS011;2224;49.814;8.650;2023-05-19T12:21:13;4.70;;;2.10;;
4422;SDS011;2224;49.814;8.650;2023-05-19T12:23:39;3.30;;;2.57;;
4422;SDS011;2224;49.814;8.650;2023-05-19T12:26:05;5.50;;;2.20;;
4422;SDS011;2224;49.814;8.650;2023-05-19T12:28:31;3.20;;;1.87;;
4422;SDS011;2224;49.814;8.650;2023-05-19T12:30:56;3.90;;;2.97;;
4422;SDS011;2224;49.814;8.650;2023-05-19T12:33:22;4.00;;;2.40;;
4422;SDS011;2224;49.814;8.650;2023-05-19T12:35:48;3.10;;;2.00;;
4422;SDS011;2224;49.814;8.650;2023-05-19T12:38:14;2.23;;;2.03;;
4422;SDS011;2224;49.814;8.650;2023-05-19T12:40:39;3.40;;;2.10;;
4422;SDS011;2224;49.814;8.650;2023-05-19T12:43:05;3.10;;;2.20;;
4422;SDS011;2224;49.814;8.650;2023-05-19T12:45:34;1.93;;;1.80;;
4422;SDS011;2224;49.814;8.650;2023-05-19T12:48:03;4.80;;;2.70;;
4422;SDS011;2224;49.814;8.650;2023-05-19T12:50:35;5.57;;;2.50;;
4422;SDS011;2224;49.814;8.650;2023-05-19T12:53:01;5.93;;;2.10;;
4422;SDS011;2224;49.814;8.650;2023-05-19T12:55:26;3.00;;;2.57;;
4422;SDS011;2224;49.814;8.650;2023-05-19T12:57:52;3.90;;;2.20;;
4422;SDS011;2224;49.814;8.650;2023-05-19T13:00:21;3.93;;;2.03;;
4422;SDS011;2224;49.814;8.650;2023-05-19T13:02:58;4.27;;;2.20;;
4422;SDS011;2224;49.814;8.650;2023-05-19T13:05:38;3.10;;;1.83;;
4422;SDS011;2224;49.814;8.650;2023-05-19T13:08:08;3.47;;;1.93;;
4422;SDS011;2224;49.814;8.650;2023-05-19T13:10:44;7.17;;;2.33;;
4422;SDS011;2224;49.814;8.650;2023-05-19T13:13:11;2.30;;;2.00;;
4422;SDS011;2224;49.814;8.650;2023-05-19T13:15:37;2.43;;;1.80;;
4422;SDS011;2224;49.814;8.650;2023-05-19T13:18:06;3.20;;;1.97;;
4422;SDS011;2224;49.814;8.650;2023-05-19T13:20:32;2.27;;;2.07;;
4422;SDS011;2224;49.814;8.650;2023-05-19T13:22:58;4.30;;;2.13;;
4422;SDS011;2224;49.814;8.650;2023-05-19T13:25:24;4.07;;;2.03;;
4422;SDS011;2224;49.814;8.650;2023-05-19T13:27:50;3.37;;;2.30;;
4422;SDS011;2224;49.814;8.650;2023-05-19T13:30:16;5.03;;;2.63;;
4422;SDS011;2224;49.814;8.650;2023-05-19T13:32:42;2.63;;;2.07;;
4422;SDS011;2224;49.814;8.650;2023-05-19T13:35:08;3.03;;;1.80;;
4422;SDS011;2224;49.814;8.650;2023-05-19T13:37:34;4.47;;;2.07;;
4422;SDS011;2224;49.814;8.650;2023-05-19T13:40:00;2.00;;;1.80;;
4422;SDS011;2224;49.814;8.650;2023-05-19T13:42:26;2.20;;;1.97;;
4422;SDS011;2224;49.814;8.650;2023-05-19T13:44:54;2.50;;;2.13;;
4422;SDS011;2224;49.814;8.650;2023-05-19T13:47:20;2.37;;;2.17;;
4422;SDS011;2224;49.814;8.650;2023-05-19T13:49:49;2.80;;;2.10;;
4422;SDS011;2224;49.814;8.650;2023-05-19T13:52:15;2.50;;;2.27;;
4422;SDS011;2224;49.814;8.650;2023-05-19T13:54:40;6.40;;;2.27;;
4422;SDS011;2224;49.814;8.650;2023-05-19T13:57:06;2.53;;;2.10;;
4422;SDS011;2224;49.814;8.650;2023-05-19T13:59:31;1.90;;;1.80;;
4422;SDS011;2224;49.814;8.650;2023-05-19T14:01:57;2.33;;;2.13;;
4422;SDS011;2224;49.814;8.650;2023-05-19T14:04:22;2.40;;;1.80;;
4422;SDS011;2224;49.814;8.650;2023-05-19T14:06:48;3.83;;;1.87;;
4422;SDS011;2224;49.814;8.650;2023-05-19T14:09:14;1.93;;;1.70;;
4422;SDS011;2224;49.814;8.650;2023-05-19T14:11:39;2.50;;;1.73;;
4422;SDS011;2224;49.814;8.650;2023-05-19T14:14:05;5.57;;;2.27;;
4422;SDS011;2224;49.814;8.650;2023-05-19T14:16:31;5.53;;;2.40;;
4422;SDS011;2224;49.814;8.650;2023-05-19T14:18:56;2.70;;;2.37;;
4422;SDS011;2224;49.814;8.650;2023-05-19T14:21:22;3.40;;;2.50;;
4422;SDS011;2224;49.814;8.650;2023-05-19T14:23:47;3.40;;;1.90;;
4422;SDS011;2224;49.814;8.650;2023-05-19T14:26:13;5.90;;;2.43;;
4422;SDS011;2224;49.814;8.650;2023-05-19T14:28:38;2.67;;;2.10;;
4422;SDS011;2224;49.814;8.650;2023-05-19T14:31:04;4.60;;;2.03;;
4422;SDS011;2224;49.814;8.650;2023-05-19T14:33:30;3.83;;;2.53;;
4422;SDS011;2224;49.814;8.650;2023-05-19T14:35:55;3.40;;;1.80;;
4422;SDS011;2224;49.814;8.650;2023-05-19T14:38:23;2.50;;;1.63;;
4422;SDS011;2224;49.814;8.650;2023-05-19T14:40:49;3.10;;;2.23;;
4422;SDS011;2224;49.814;8.650;2023-05-19T14:43:15;2.90;;;2.00;;
4422;SDS011;2224;49.814;8.650;2023-05-19T14:45:40;4.40;;;2.40;;
4422;SDS011;2224;49.814;8.650;2023-05-19T14:48:08;2.80;;;2.30;;
4422;SDS011;2224;49.814;8.650;2023-05-19T14:50:35;2.20;;;1.90;;
4422;SDS011;2224;49.814;8.650;2023-05-19T14:53:01;7.40;;;2.67;;
4422;SDS011;2224;49.814;8.650;2023-05-19T14:55:26;3.30;;;2.17;;
4422;SDS011;2224;49.814;8.650;2023-05-19T14:57:51;3.87;;;2.50;;
4422;SDS011;2224;49.814;8.650;2023-05-19T15:00:17;2.83;;;2.20;;
4422;SDS011;2224;49.814;8.650;2023-05-19T15:02:42;3.70;;;2.50;;
4422;SDS011;2224;49.814;8.650;2023-05-19T15:05:08;2.90;;;1.90;;
4422;SDS011;2224;49.814;8.650;2023-05-19T15:07:33;2.93;;;1.90;;
4422;SDS011;2224;49.814;8.650;2023-05-19T15:09:59;3.00;;;2.33;;
4422;SDS011;2224;49.814;8.650;2023-05-19T15:12:25;3.57;;;2.00;;
4422;SDS011;2224;49.814;8.650;2023-05-19T15:14:50;2.43;;;2.23;;
4422;SDS011;2224;49.814;8.650;2023-05-19T15:17:16;3.87;;;2.30;;
4422;SDS011;2224;49.814;8.650;2023-05-19T15:19:41;4.13;;;2.27;;
4422;SDS011;2224;49.814;8.650;2023-05-19T15:22:07;2.90;;;2.07;;
4422;SDS011;2224;49.814;8.650;2023-05-19T15:24:32;3.33;;;2.53;;
4422;SDS011;2224;49.814;8.650;2023-05-19T15:26:58;2.80;;;2.37;;
4422;SDS011;2224;49.814;8.650;2023-05-19T15:29:24;3.13;;;2.00;;
4422;SDS011;2224;49.814;8.650;2023-05-19T15:31:50;2.87;;;2.53;;
4422;SDS011;2224;49.814;8.650;2023-05-19T15:34:18;2.90;;;2.13;;
4422;SDS011;2224;49.814;8.650;2023-05-19T15:36:44;3.20;;;2.23;;
4422;SDS011;2224;49.814;8.650;2023-05-19T15:39:10;2.43;;;2.10;;
4422;SDS011;2224;49.814;8.650;2023-05-19T15:41:35;3.00;;;2.20;;
4422;SDS011;2224;49.814;8.650;2023-05-19T15:44:00;3.70;;;2.80;;
4422;SDS011;2224;49.814;8.650;2023-05-19T15:46:27;4.13;;;2.17;;
4422;SDS011;2224;49.814;8.650;2023-05-19T15:48:52;3.50;;;2.27;;
4422;SDS011;2224;49.814;8.650;2023-05-19T15:51:18;3.70;;;2.53;;
4422;SDS011;2224;49.814;8.650;2023-05-19T15:53:43;3.20;;;2.73;;
4422;SDS011;2224;49.814;8.650;2023-05-19T15:56:08;3.07;;;2.40;;
4422;SDS011;2224;49.814;8.650;2023-05-19T15:58:34;3.73;;;3.13;;